createdAt,value
2022-12-28T00:01:34.469Z,9.43
2022-12-28T00:03:36.123Z,8.73
2022-12-28T00:05:37.647Z,9.50
2022-12-28T00:07:39.337Z,9.15
2022-12-28T00:09:40.961Z,9.55
2022-12-28T00:11:42.514Z,9.68
2022-12-28T00:13:44.411Z,11.65
2022-12-28T00:15:45.952Z,12.48
2022-12-28T00:17:47.587Z,11.68
2022-12-28T00:19:49.155Z,11.40
2022-12-28T00:21:53.613Z,9.70
2022-12-28T00:23:57.527Z,9.93
2022-12-28T00:26:11.465Z,10.77
2022-12-28T00:28:12.976Z,10.40
2022-12-28T00:30:14.508Z,10.68
2022-12-28T00:32:16.026Z,9.95
2022-12-28T00:34:17.686Z,10.50
2022-12-28T00:36:19.281Z,18.17
2022-12-28T00:38:20.938Z,13.07
2022-12-28T00:40:24.222Z,13.27
2022-12-28T00:42:25.960Z,10.35
2022-12-28T00:44:27.587Z,11.40
2022-12-28T00:46:29.118Z,10.40
2022-12-28T00:48:30.819Z,14.52
2022-12-28T00:50:32.363Z,12.25
2022-12-28T00:52:33.999Z,9.40
2022-12-28T00:54:35.581Z,10.18
2022-12-28T00:56:37.238Z,10.32
2022-12-28T00:58:38.818Z,8.57
2022-12-28T01:00:40.414Z,10.10
2022-12-28T01:02:42.073Z,10.13
2022-12-28T01:04:43.658Z,10.32
2022-12-28T01:06:45.182Z,10.13
2022-12-28T01:08:47.246Z,9.13
2022-12-28T01:10:48.838Z,9.75
2022-12-28T01:12:50.331Z,9.32
2022-12-28T01:14:51.865Z,8.30
2022-12-28T01:16:53.443Z,9.35
2022-12-28T01:18:57.572Z,9.70
2022-12-28T01:20:59.115Z,9.57
2022-12-28T01:23:00.687Z,8.43
2022-12-28T01:25:02.195Z,9.18
2022-12-28T01:27:03.805Z,8.80
2022-12-28T01:29:05.318Z,8.98
2022-12-28T01:31:09.762Z,8.80
2022-12-28T01:33:11.469Z,9.02
2022-12-28T01:35:13.017Z,8.60
2022-12-28T01:37:14.534Z,9.07
2022-12-28T01:39:16.150Z,8.95
2022-12-28T01:41:19.317Z,8.38
2022-12-28T01:43:34.825Z,10.05
2022-12-28T01:45:36.443Z,9.07
2022-12-28T01:47:38.182Z,9.73
2022-12-28T01:49:46.317Z,9.82
2022-12-28T01:52:13.241Z,11.02
2022-12-28T01:54:15.353Z,11.32
2022-12-28T01:56:17.301Z,10.63
2022-12-28T01:58:24.042Z,12.25
2022-12-28T02:00:26.956Z,11.25
2022-12-28T02:02:30.239Z,10.15
2022-12-28T02:04:31.993Z,10.43
2022-12-28T02:06:33.669Z,10.77
2022-12-28T02:08:42.993Z,9.75
2022-12-28T02:10:46.248Z,10.27
2022-12-28T02:12:47.969Z,10.20
2022-12-28T02:14:49.699Z,9.93
2022-12-28T02:16:53.207Z,9.05
2022-12-28T02:18:55.280Z,9.98
2022-12-28T02:21:31.185Z,9.57
2022-12-28T02:23:54.292Z,9.55
2022-12-28T02:26:21.522Z,9.45
2022-12-28T02:28:41.718Z,9.07
2022-12-28T02:31:07.507Z,10.15
2022-12-28T02:33:18.953Z,9.50
2022-12-28T02:35:58.638Z,9.93
2022-12-28T02:38:12.321Z,10.27
2022-12-28T02:40:22.645Z,10.52
2022-12-28T02:42:26.564Z,12.25
2022-12-28T02:44:46.313Z,12.55
2022-12-28T02:47:26.002Z,13.27
2022-12-28T02:49:47.403Z,13.45
2022-12-28T02:52:03.626Z,13.88
2022-12-28T02:54:43.376Z,15.35
2022-12-28T02:56:55.864Z,15.07
2022-12-28T02:59:15.991Z,16.77
2022-12-28T03:01:35.534Z,16.00
2022-12-28T03:06:19.562Z,15.25
2022-12-28T03:08:36.475Z,16.05
2022-12-28T03:10:50.135Z,17.98
2022-12-28T03:12:51.580Z,17.08
2022-12-28T03:15:08.252Z,17.55
2022-12-28T03:17:29.502Z,17.15
2022-12-28T03:19:54.468Z,18.10
2022-12-28T03:22:16.320Z,17.50
2022-12-28T03:24:38.237Z,18.73
2022-12-28T03:27:03.952Z,18.33
2022-12-28T03:29:27.551Z,19.35
2022-12-28T03:31:31.052Z,18.58
2022-12-28T03:33:36.205Z,19.65
2022-12-28T03:36:03.658Z,20.48
2022-12-28T03:38:05.416Z,18.10
2022-12-28T03:40:17.855Z,18.90
2022-12-28T03:42:51.388Z,20.77
2022-12-28T03:44:59.090Z,18.20
2022-12-28T03:47:13.802Z,17.45
2022-12-28T03:49:15.663Z,17.88
2022-12-28T03:51:21.770Z,17.58
2022-12-28T03:53:29.024Z,18.17
2022-12-28T03:55:30.928Z,18.60
2022-12-28T03:57:32.463Z,18.35
2022-12-28T03:59:34.785Z,18.40
2022-12-28T04:01:36.557Z,18.95
2022-12-28T04:03:38.338Z,20.50
2022-12-28T04:05:39.871Z,21.08
2022-12-28T04:07:41.522Z,20.77
2022-12-28T04:09:43.007Z,24.00
2022-12-28T04:11:44.543Z,21.23
2022-12-28T04:13:46.090Z,26.00
2022-12-28T04:16:02.357Z,30.30
2022-12-28T04:18:04.068Z,27.33
2022-12-28T04:20:06.224Z,32.40
2022-12-28T04:22:07.807Z,29.10
2022-12-28T04:24:09.384Z,23.25
2022-12-28T04:26:13.390Z,22.73
2022-12-28T04:28:14.935Z,23.15
2022-12-28T04:30:16.589Z,22.02
2022-12-28T04:32:18.144Z,23.38
2022-12-28T04:34:19.946Z,23.50
2022-12-28T04:36:21.472Z,21.00
2022-12-28T04:38:22.980Z,24.13
2022-12-28T04:40:24.539Z,36.95
2022-12-28T04:42:26.272Z,23.33
2022-12-28T04:44:27.858Z,20.85
2022-12-28T04:46:29.492Z,20.33
2022-12-28T04:48:31.461Z,19.80
2022-12-28T04:50:33.040Z,19.45
2022-12-28T04:52:34.585Z,21.00
2022-12-28T04:54:36.107Z,19.27
2022-12-28T04:56:37.646Z,18.30
2022-12-28T04:58:39.713Z,17.60
2022-12-28T05:00:41.707Z,19.05
2022-12-28T05:02:46.383Z,19.15
2022-12-28T05:04:48.103Z,20.00
2022-12-28T05:06:49.759Z,22.95
2022-12-28T05:08:51.783Z,29.77
2022-12-28T05:10:53.443Z,21.50
2022-12-28T05:12:56.019Z,21.55
2022-12-28T05:14:57.569Z,19.02
2022-12-28T05:16:59.121Z,19.30
2022-12-28T05:19:00.699Z,18.45
2022-12-28T05:21:07.014Z,18.80
2022-12-28T05:23:08.605Z,18.40
2022-12-28T05:25:10.175Z,19.20
2022-12-28T05:27:11.673Z,18.55
2022-12-28T05:29:13.182Z,19.33
2022-12-28T05:31:17.419Z,18.27
2022-12-28T05:33:19.292Z,17.85
2022-12-28T05:35:20.812Z,18.40
2022-12-28T05:37:22.523Z,19.60
2022-12-28T05:39:24.568Z,25.55
2022-12-28T05:41:28.395Z,30.02
2022-12-28T05:43:30.562Z,28.50
2022-12-28T05:45:32.082Z,22.40
2022-12-28T05:47:33.649Z,22.02
2022-12-28T05:49:35.229Z,26.85
2022-12-28T05:51:39.567Z,31.20
2022-12-28T05:53:42.169Z,27.80
2022-12-28T05:55:43.739Z,22.52
2022-12-28T05:57:45.246Z,23.95
2022-12-28T05:59:46.750Z,21.85
2022-12-28T06:01:48.423Z,19.85
2022-12-28T06:03:54.963Z,22.17
2022-12-28T06:05:56.555Z,21.25
2022-12-28T06:08:00.077Z,22.38
2022-12-28T06:10:02.567Z,21.98
2022-12-28T06:12:04.847Z,20.23
2022-12-28T06:14:06.757Z,21.80
2022-12-28T06:16:10.646Z,43.35
2022-12-28T06:18:12.175Z,59.65
2022-12-28T06:20:13.687Z,63.88
2022-12-28T06:22:15.271Z,34.55
2022-12-28T06:24:18.976Z,26.55
2022-12-28T06:26:21.921Z,22.55
2022-12-28T06:28:23.550Z,19.48
2022-12-28T06:30:25.153Z,21.35
2022-12-28T06:32:26.695Z,24.30
2022-12-28T06:34:28.420Z,22.92
2022-12-28T06:36:33.411Z,24.45
2022-12-28T06:38:34.980Z,22.83
2022-12-28T06:41:11.170Z,20.67
2022-12-28T06:42:59.274Z,19.90
2022-12-28T06:45:00.794Z,19.95
2022-12-28T06:47:02.284Z,18.92
2022-12-28T06:49:04.057Z,20.45
2022-12-28T06:51:14.391Z,19.05
2022-12-28T06:53:15.962Z,21.27
2022-12-28T06:55:17.485Z,19.55
2022-12-28T06:57:19.537Z,18.23
2022-12-28T06:59:21.084Z,18.33
2022-12-28T07:01:26.849Z,19.95
2022-12-28T07:03:28.457Z,18.73
2022-12-28T07:05:31.679Z,21.75
2022-12-28T07:07:33.265Z,22.48
2022-12-28T07:09:34.775Z,20.42
2022-12-28T07:11:36.939Z,18.77
2022-12-28T07:13:39.122Z,17.52
2022-12-28T07:15:40.679Z,17.77
2022-12-28T07:17:42.192Z,16.42
2022-12-28T07:19:43.793Z,16.08
2022-12-28T07:21:45.386Z,15.93
2022-12-28T07:23:47.517Z,13.90
2022-12-28T07:25:49.039Z,14.25
2022-12-28T07:27:50.614Z,12.75
2022-12-28T07:29:52.154Z,11.95
2022-12-28T07:31:53.749Z,11.10
2022-12-28T07:33:56.599Z,11.15
2022-12-28T07:35:58.757Z,10.32
2022-12-28T07:38:00.295Z,9.57
2022-12-28T07:40:01.891Z,10.50
2022-12-28T07:42:06.717Z,11.80
2022-12-28T07:44:08.241Z,11.27
2022-12-28T07:46:15.415Z,9.30
2022-12-28T07:48:16.972Z,9.70
2022-12-28T07:50:18.551Z,8.70
2022-12-28T07:52:20.092Z,10.38
2022-12-28T07:54:21.626Z,10.38
2022-12-28T07:56:24.978Z,7.15
2022-12-28T07:58:32.703Z,7.57
2022-12-28T08:00:34.582Z,7.13
2022-12-28T08:02:36.193Z,16.23
2022-12-28T08:04:37.723Z,9.52
2022-12-28T08:06:42.223Z,7.30
2022-12-28T08:08:45.536Z,7.70
2022-12-28T08:11:02.731Z,6.47
2022-12-28T08:13:13.177Z,7.53
2022-12-28T08:15:15.001Z,6.72
2022-12-28T08:17:20.925Z,6.38
2022-12-28T08:19:22.919Z,7.00
2022-12-28T08:21:36.422Z,5.75
2022-12-28T08:23:38.103Z,8.52
2022-12-28T08:25:39.642Z,8.20
2022-12-28T08:27:50.740Z,6.55
2022-12-28T08:29:52.428Z,6.25
2022-12-28T08:31:54.023Z,6.13
2022-12-28T08:33:57.284Z,7.75
2022-12-28T08:35:58.879Z,5.93
2022-12-28T08:38:00.464Z,6.10
2022-12-28T08:40:02.446Z,6.85
2022-12-28T08:42:04.073Z,5.85
2022-12-28T08:44:06.333Z,6.60
2022-12-28T08:46:12.280Z,7.35
2022-12-28T08:48:14.208Z,6.75
2022-12-28T08:50:26.515Z,7.70
2022-12-28T08:52:37.059Z,7.82
2022-12-28T08:54:51.335Z,6.80
2022-12-28T08:56:54.103Z,6.00
2022-12-28T08:58:57.024Z,5.88
2022-12-28T09:01:12.991Z,6.25
2022-12-28T09:03:14.886Z,4.82
2022-12-28T09:05:16.537Z,5.28
2022-12-28T09:07:18.067Z,5.47
2022-12-28T09:09:40.017Z,9.02
2022-12-28T09:11:48.639Z,9.82
2022-12-28T09:14:04.403Z,5.53
2022-12-28T09:16:18.867Z,6.57
2022-12-28T09:18:31.029Z,4.82
2022-12-28T09:20:32.620Z,5.63
2022-12-28T09:22:34.187Z,4.65
2022-12-28T09:24:35.731Z,5.60
2022-12-28T09:26:38.681Z,5.18
2022-12-28T09:28:45.485Z,6.90
2022-12-28T09:30:56.018Z,6.78
2022-12-28T09:33:17.715Z,5.38
2022-12-28T09:35:25.387Z,5.05
2022-12-28T09:37:27.299Z,4.68
2022-12-28T09:39:29.367Z,5.57
2022-12-28T09:41:55.495Z,5.90
2022-12-28T09:44:29.502Z,5.90
2022-12-28T09:46:42.809Z,6.95
2022-12-28T09:48:58.431Z,7.60
2022-12-28T09:51:00.242Z,5.93
2022-12-28T09:53:04.463Z,5.32
2022-12-28T09:55:12.444Z,5.10
2022-12-28T09:57:16.903Z,5.18
2022-12-28T09:59:26.152Z,5.30
2022-12-28T10:01:27.923Z,6.28
2022-12-28T10:03:37.345Z,7.70
2022-12-28T10:05:39.130Z,8.00
2022-12-28T10:07:40.742Z,6.43
2022-12-28T10:09:42.438Z,5.60
2022-12-28T10:11:44.534Z,6.28
2022-12-28T10:13:56.552Z,5.82
2022-12-28T10:15:58.482Z,6.28
2022-12-28T10:18:00.292Z,5.47
2022-12-28T10:20:01.949Z,5.22
2022-12-28T10:22:24.833Z,4.95
2022-12-28T10:24:31.722Z,5.20
2022-12-28T10:26:34.971Z,5.40
2022-12-28T10:28:49.461Z,5.03
2022-12-28T10:31:06.875Z,6.30
2022-12-28T10:33:15.582Z,6.38
2022-12-28T10:35:30.415Z,5.72
2022-12-28T10:37:36.968Z,6.18
2022-12-28T10:39:38.748Z,7.60
2022-12-28T10:41:41.334Z,5.60
2022-12-28T10:44:03.468Z,9.90
2022-12-28T10:46:23.481Z,5.38
2022-12-28T10:48:39.703Z,6.22
2022-12-28T10:50:55.151Z,7.45
2022-12-28T10:53:07.789Z,5.95
2022-12-28T10:55:31.366Z,5.60
2022-12-28T10:58:03.190Z,7.38
2022-12-28T11:00:23.067Z,7.25
2022-12-28T11:02:32.876Z,7.72
2022-12-28T11:04:34.651Z,6.07
2022-12-28T11:06:50.858Z,6.57
2022-12-28T11:09:03.972Z,10.38
2022-12-28T11:11:19.440Z,9.02
2022-12-28T11:13:27.429Z,8.95
2022-12-28T11:15:46.974Z,9.48
2022-12-28T11:18:07.158Z,9.27
2022-12-28T11:20:18.180Z,22.90
2022-12-28T11:22:28.512Z,17.52
2022-12-28T11:24:34.727Z,12.27
2022-12-28T11:26:42.975Z,16.00
2022-12-28T11:28:46.165Z,10.88
2022-12-28T11:30:49.483Z,9.85
2022-12-28T11:33:00.425Z,8.60
2022-12-28T11:35:02.705Z,8.10
2022-12-28T11:37:04.319Z,7.60
2022-12-28T11:39:27.671Z,6.75
2022-12-28T11:41:46.995Z,7.65
2022-12-28T11:44:00.939Z,8.98
2022-12-28T11:46:06.788Z,10.45
2022-12-28T11:48:42.353Z,11.73
2022-12-28T11:50:53.910Z,10.57
2022-12-28T11:52:55.403Z,14.50
2022-12-28T11:55:23.746Z,9.20
2022-12-28T11:57:39.416Z,8.63
2022-12-28T11:59:40.962Z,10.65
2022-12-28T12:02:08.883Z,7.97
2022-12-28T12:04:35.120Z,11.32
2022-12-28T12:06:42.725Z,23.10
2022-12-28T12:08:49.812Z,19.45
2022-12-28T12:11:27.609Z,14.77
2022-12-28T12:13:29.897Z,12.02
2022-12-28T12:15:37.616Z,13.07
2022-12-28T12:18:04.267Z,12.45
2022-12-28T12:20:15.399Z,11.05
2022-12-28T12:22:35.239Z,14.63
2022-12-28T12:24:45.936Z,14.70
2022-12-28T12:26:55.368Z,15.68
2022-12-28T12:29:04.790Z,14.07
2022-12-28T12:31:15.438Z,12.10
2022-12-28T12:33:26.917Z,10.25
2022-12-28T12:35:49.945Z,12.23
2022-12-28T12:38:20.656Z,10.63
2022-12-28T12:40:43.435Z,14.73
2022-12-28T12:43:09.639Z,11.00
2022-12-28T12:45:23.424Z,9.85
2022-12-28T12:47:39.314Z,12.38
2022-12-28T12:49:46.661Z,13.00
2022-12-28T12:52:14.358Z,11.10
2022-12-28T12:54:16.032Z,10.90
2022-12-28T12:57:12.807Z,8.05
2022-12-28T12:59:37.197Z,8.50
2022-12-28T13:01:53.185Z,9.05
2022-12-28T13:03:59.817Z,12.85
2022-12-28T13:06:05.886Z,8.00
2022-12-28T13:08:34.599Z,8.15
2022-12-28T13:10:40.587Z,5.60
2022-12-28T13:12:45.380Z,7.55
2022-12-28T13:14:51.367Z,8.43
2022-12-28T13:16:56.131Z,8.88
2022-12-28T13:19:01.029Z,7.97
2022-12-28T13:21:10.557Z,9.85
2022-12-28T13:23:17.183Z,10.27
2022-12-28T13:25:25.989Z,10.50
2022-12-28T13:27:34.897Z,10.37
2022-12-28T13:29:52.383Z,12.50
2022-12-28T13:31:57.513Z,11.73
2022-12-28T13:34:02.505Z,14.82
2022-12-28T13:36:05.482Z,15.32
2022-12-28T13:38:14.248Z,22.25
2022-12-28T13:40:16.773Z,28.58
2022-12-28T13:42:23.579Z,41.28
2022-12-28T13:44:31.587Z,25.50
2022-12-28T13:46:36.591Z,10.77
2022-12-28T13:48:44.258Z,9.95
2022-12-28T13:50:46.213Z,13.25
2022-12-28T13:52:52.080Z,12.35
2022-12-28T13:54:58.560Z,12.95
2022-12-28T13:57:20.907Z,13.80
2022-12-28T13:59:22.811Z,12.00
2022-12-28T14:01:30.388Z,18.65
2022-12-28T14:03:37.685Z,16.17
2022-12-28T14:05:55.173Z,12.60
2022-12-28T14:08:02.592Z,12.93
2022-12-28T14:10:04.763Z,17.58
2022-12-28T14:12:06.483Z,14.13
2022-12-28T14:14:10.298Z,15.60
2022-12-28T14:16:12.234Z,11.30
2022-12-28T14:18:17.123Z,11.85
2022-12-28T14:20:25.015Z,10.57
2022-12-28T14:22:41.911Z,11.15
2022-12-28T14:25:08.275Z,10.00
2022-12-28T14:27:09.944Z,9.43
2022-12-28T14:29:21.074Z,9.43
2022-12-28T14:31:28.161Z,8.85
2022-12-28T14:33:33.963Z,9.10
2022-12-28T14:35:35.544Z,9.65
2022-12-28T14:37:40.530Z,10.63
2022-12-28T14:39:45.037Z,8.88
2022-12-28T14:41:46.872Z,9.88
2022-12-28T14:43:58.187Z,9.45
2022-12-28T14:46:17.055Z,9.35
2022-12-28T14:48:37.675Z,11.93
2022-12-28T14:50:55.722Z,10.40
2022-12-28T14:53:19.024Z,12.20
2022-12-28T14:55:23.724Z,10.90
2022-12-28T14:57:34.159Z,13.82
2022-12-28T14:59:42.999Z,13.10
2022-12-28T15:01:46.516Z,12.03
2022-12-28T15:04:13.019Z,8.65
2022-12-28T15:06:15.244Z,10.15
2022-12-28T15:08:19.411Z,17.02
2022-12-28T15:10:20.943Z,9.55
2022-12-28T15:12:23.189Z,10.77
2022-12-28T15:14:25.379Z,12.20
2022-12-28T15:16:27.039Z,12.70
2022-12-28T15:18:30.662Z,13.02
2022-12-28T15:20:32.500Z,19.75
2022-12-28T15:22:34.199Z,15.00
2022-12-28T15:24:36.062Z,16.23
2022-12-28T15:26:37.566Z,20.73
2022-12-28T15:28:39.800Z,30.25
2022-12-28T15:30:43.046Z,29.83
2022-12-28T15:32:44.989Z,17.05
2022-12-28T15:34:46.555Z,15.48
2022-12-28T15:36:48.097Z,15.10
2022-12-28T15:38:49.718Z,19.00
2022-12-28T15:40:55.310Z,8.30
2022-12-28T15:42:56.947Z,10.55
2022-12-28T15:44:58.559Z,13.32
2022-12-28T15:47:00.247Z,29.85
2022-12-28T15:49:02.661Z,16.52
2022-12-28T15:51:04.271Z,11.20
2022-12-28T15:53:05.786Z,14.07
2022-12-28T15:55:07.620Z,12.23
2022-12-28T15:57:10.866Z,12.55
2022-12-28T15:59:14.324Z,13.27
2022-12-28T16:01:16.000Z,19.35
2022-12-28T16:03:17.751Z,11.05
2022-12-28T16:05:19.405Z,11.63
2022-12-28T16:07:21.000Z,9.27
2022-12-28T16:09:22.690Z,10.00
2022-12-28T16:11:24.690Z,11.65
2022-12-28T16:13:26.181Z,8.07
2022-12-28T16:15:28.147Z,8.55
2022-12-28T16:17:30.002Z,9.55
2022-12-28T16:19:31.582Z,9.25
2022-12-28T16:21:33.548Z,9.55
2022-12-28T16:23:38.030Z,11.93
2022-12-28T16:25:39.555Z,9.50
2022-12-28T16:27:41.106Z,15.18
2022-12-28T16:29:42.867Z,13.82
2022-12-28T16:31:44.456Z,10.52
2022-12-28T16:33:45.993Z,16.88
2022-12-28T16:35:50.872Z,13.75
2022-12-28T16:37:55.990Z,9.90
2022-12-28T16:39:57.503Z,9.32
2022-12-28T16:41:59.523Z,9.10
2022-12-28T16:44:03.624Z,10.80
2022-12-28T16:46:07.389Z,10.05
2022-12-28T16:48:12.106Z,9.82
2022-12-28T16:50:16.525Z,11.02
2022-12-28T16:52:18.050Z,10.88
2022-12-28T16:54:22.154Z,10.63
2022-12-28T16:56:24.163Z,12.02
2022-12-28T16:58:25.664Z,11.50
2022-12-28T17:00:27.162Z,13.93
2022-12-28T17:02:28.856Z,13.52
2022-12-28T17:04:30.632Z,15.95
2022-12-28T17:06:32.220Z,11.80
2022-12-28T17:08:36.757Z,11.45
2022-12-28T17:10:41.610Z,11.93
2022-12-28T17:12:43.167Z,10.73
2022-12-28T17:14:44.706Z,9.60
2022-12-28T17:16:46.282Z,12.70
2022-12-28T17:18:47.824Z,11.95
2022-12-28T17:20:50.946Z,11.77
2022-12-28T17:22:52.485Z,12.68
2022-12-28T17:24:53.993Z,13.85
2022-12-28T17:26:56.269Z,12.40
2022-12-28T17:28:59.296Z,15.85
2022-12-28T17:31:14.367Z,17.88
2022-12-28T17:33:16.629Z,15.98
2022-12-28T17:35:18.151Z,17.83
2022-12-28T17:37:19.702Z,20.75
2022-12-28T17:39:21.695Z,15.80
2022-12-28T17:41:26.574Z,14.85
2022-12-28T17:43:28.534Z,15.48
2022-12-28T17:45:30.075Z,17.85
2022-12-28T17:47:31.819Z,16.10
2022-12-28T17:49:34.396Z,25.20
2022-12-28T17:51:35.925Z,25.65
2022-12-28T17:53:37.658Z,26.10
2022-12-28T17:55:39.218Z,25.20
2022-12-28T17:57:40.767Z,22.30
2022-12-28T17:59:42.568Z,20.13
2022-12-28T18:01:44.531Z,16.92
2022-12-28T18:03:46.598Z,15.50
2022-12-28T18:05:49.228Z,17.63
2022-12-28T18:07:50.754Z,14.00
2022-12-28T18:09:52.252Z,15.75
2022-12-28T18:11:53.814Z,16.95
2022-12-28T18:13:58.919Z,15.77
2022-12-28T18:16:03.049Z,14.40
2022-12-28T18:18:05.350Z,14.27
2022-12-28T18:20:07.540Z,13.82
2022-12-28T18:22:09.082Z,14.65
2022-12-28T18:24:14.142Z,13.63
2022-12-28T18:26:18.421Z,13.07
2022-12-28T18:28:20.368Z,19.65
2022-12-28T18:30:22.149Z,13.82
2022-12-28T18:32:23.891Z,14.45
2022-12-28T18:34:25.469Z,12.55
2022-12-28T18:36:26.984Z,14.57
2022-12-28T18:38:28.671Z,16.17
2022-12-28T18:40:30.264Z,14.85
2022-12-28T18:42:31.804Z,14.45
2022-12-28T18:44:33.418Z,17.92
2022-12-28T18:46:35.059Z,18.88
2022-12-28T18:48:38.616Z,49.38
2022-12-28T18:50:40.114Z,24.73
2022-12-28T18:52:41.740Z,28.38
2022-12-28T18:54:43.266Z,64.60
2022-12-28T18:56:44.798Z,20.10
2022-12-28T18:58:51.555Z,27.95
2022-12-28T19:00:53.145Z,23.20
2022-12-28T19:02:54.885Z,18.52
2022-12-28T19:04:56.599Z,37.92
2022-12-28T19:06:58.228Z,25.42
2022-12-28T19:09:00.526Z,28.40
2022-12-28T19:11:02.594Z,25.52
2022-12-28T19:13:04.115Z,16.63
2022-12-28T19:15:06.506Z,17.85
2022-12-28T19:17:08.041Z,14.52
2022-12-28T19:19:09.699Z,15.02
2022-12-28T19:21:25.891Z,11.48
2022-12-28T19:23:27.434Z,13.75
2022-12-28T19:25:29.026Z,15.32
2022-12-28T19:27:30.640Z,16.17
2022-12-28T19:29:32.418Z,8.52
2022-12-28T19:31:34.367Z,7.35
2022-12-28T19:33:36.122Z,6.80
2022-12-28T19:35:37.631Z,7.68
2022-12-28T19:37:39.263Z,11.07
2022-12-28T19:39:41.000Z,8.20
2022-12-28T19:41:42.553Z,18.08
2022-12-28T19:43:44.386Z,18.70
2022-12-28T19:45:45.916Z,15.43
2022-12-28T19:47:47.472Z,13.48
2022-12-28T19:49:49.113Z,12.02
2022-12-28T19:51:50.640Z,11.88
2022-12-28T19:53:55.203Z,14.88
2022-12-28T19:56:08.494Z,19.27
2022-12-28T19:58:10.032Z,8.65
2022-12-28T20:00:12.404Z,8.02
2022-12-28T20:02:14.049Z,7.75
2022-12-28T20:04:15.780Z,13.85
2022-12-28T20:06:18.727Z,11.45
2022-12-28T20:08:20.353Z,8.68
2022-12-28T20:10:21.999Z,7.80
2022-12-28T20:12:23.661Z,10.38
2022-12-28T20:14:25.443Z,9.68
2022-12-28T20:16:29.312Z,7.70
2022-12-28T20:18:31.092Z,8.55
2022-12-28T20:20:45.918Z,9.05
2022-12-28T20:22:54.150Z,9.85
2022-12-28T20:24:55.713Z,11.70
2022-12-28T20:27:01.483Z,10.13
2022-12-28T20:29:05.161Z,11.00
2022-12-28T20:31:08.983Z,12.57
2022-12-28T20:33:10.610Z,10.88
2022-12-28T20:35:12.483Z,10.38
2022-12-28T20:37:14.052Z,15.07
2022-12-28T20:39:15.596Z,11.82
2022-12-28T20:41:48.516Z,12.75
2022-12-28T20:43:50.061Z,9.68
2022-12-28T20:45:54.360Z,11.85
2022-12-28T20:47:56.087Z,15.85
2022-12-28T20:49:57.646Z,16.73
2022-12-28T20:51:59.280Z,11.45
2022-12-28T20:54:01.592Z,11.60
2022-12-28T20:56:07.553Z,15.85
2022-12-28T20:58:09.295Z,14.93
2022-12-28T21:00:11.387Z,18.95
2022-12-28T21:02:13.303Z,18.13
2022-12-28T21:04:15.060Z,13.00
2022-12-28T21:06:16.680Z,16.33
2022-12-28T21:08:18.194Z,15.35
2022-12-28T21:10:19.753Z,24.83
2022-12-28T21:12:21.363Z,22.85
2022-12-28T21:14:22.977Z,19.67
2022-12-28T21:16:24.740Z,17.30
2022-12-28T21:18:26.252Z,15.57
2022-12-28T21:20:29.417Z,15.18
2022-12-28T21:22:33.193Z,15.23
2022-12-28T21:24:34.910Z,12.95
2022-12-28T21:26:37.218Z,13.05
2022-12-28T21:28:38.864Z,10.57
2022-12-28T21:30:40.556Z,13.55
2022-12-28T21:32:42.085Z,10.38
2022-12-28T21:34:43.606Z,9.93
2022-12-28T21:36:45.183Z,10.75
2022-12-28T21:38:48.324Z,11.30
2022-12-28T21:41:05.687Z,12.20
2022-12-28T21:43:07.263Z,12.57
2022-12-28T21:45:09.538Z,11.35
2022-12-28T21:47:11.055Z,11.52
2022-12-28T21:49:13.086Z,12.60
2022-12-28T21:51:31.165Z,11.38
2022-12-28T21:53:32.948Z,9.07
2022-12-28T21:55:44.217Z,8.95
2022-12-28T21:57:52.789Z,11.43
2022-12-28T21:59:55.138Z,10.65
2022-12-28T22:02:15.190Z,9.85
2022-12-28T22:04:37.831Z,9.18
2022-12-28T22:06:39.406Z,9.98
2022-12-28T22:08:59.284Z,7.82
2022-12-28T22:11:19.423Z,11.15
2022-12-28T22:13:20.994Z,12.40
2022-12-28T22:15:44.168Z,9.85
2022-12-28T22:17:46.883Z,8.65
2022-12-28T22:19:48.515Z,7.15
2022-12-28T22:21:50.431Z,6.72
2022-12-28T22:23:52.009Z,7.53
2022-12-28T22:25:53.560Z,10.38
2022-12-28T22:27:55.959Z,10.55
2022-12-28T22:29:57.514Z,6.65
2022-12-28T22:31:59.126Z,5.57
2022-12-28T22:34:06.810Z,6.78
2022-12-28T22:36:19.115Z,6.82
2022-12-28T22:38:20.662Z,7.63
2022-12-28T22:40:22.613Z,6.43
2022-12-28T22:42:24.210Z,8.60
2022-12-28T22:44:25.744Z,10.90
2022-12-28T22:46:27.305Z,8.00
2022-12-28T22:48:29.184Z,6.75
2022-12-28T22:50:30.713Z,6.75
2022-12-28T22:52:32.317Z,7.05
2022-12-28T22:54:33.890Z,8.77
2022-12-28T22:56:35.398Z,12.30
2022-12-28T22:58:37.056Z,9.02
2022-12-28T23:00:38.596Z,7.68
2022-12-28T23:02:40.525Z,6.82
2022-12-28T23:04:42.235Z,7.97
2022-12-28T23:06:43.854Z,7.03
2022-12-28T23:08:46.322Z,7.05
2022-12-28T23:10:59.879Z,6.78
2022-12-28T23:13:01.411Z,7.85
2022-12-28T23:15:21.718Z,6.55
2022-12-28T23:17:24.023Z,7.30
2022-12-28T23:19:44.706Z,7.43
2022-12-28T23:22:04.648Z,5.97
2022-12-28T23:24:29.640Z,6.93
2022-12-28T23:26:49.505Z,6.25
2022-12-28T23:28:51.022Z,6.30
2022-12-28T23:30:53.147Z,7.03
2022-12-28T23:32:55.783Z,8.07
2022-12-28T23:34:57.366Z,16.10
2022-12-28T23:36:58.932Z,7.88
2022-12-28T23:39:00.571Z,7.20
2022-12-28T23:41:24.553Z,7.32
2022-12-28T23:43:26.157Z,8.20
2022-12-28T23:45:27.757Z,10.02
2022-12-28T23:47:30.322Z,8.18
2022-12-28T23:49:31.853Z,7.80
2022-12-28T23:51:33.603Z,6.88
2022-12-28T23:53:35.316Z,7.80
2022-12-28T23:55:36.888Z,8.60
2022-12-28T23:57:38.567Z,8.23
2022-12-28T23:59:40.117Z,15.02
